Time;durP1;ratioP1;P1;durP2;ratioP2;P2;SDS_P1;SDS_P2;PMS_P1;PMS_P2;Temp;Humidity;BMP_temperature;BMP_pressure;BME280_temperature;BME280_humidity;BME280_pressure;Samples;Min_cycle;Max_cycle;Signal;HPM_P1;HPM_P2
2023/07/02 00:02:21;;;;;;;0.00;0.00;;;17.30;99.90;;;;;;5050792;28;20284;-63
2023/07/02 00:04:47;;;;;;;0.00;0.00;;;17.30;99.90;;;;;;5050834;28;20172;-64
2023/07/02 00:07:12;;;;;;;0.00;0.00;;;17.30;99.90;;;;;;5050726;28;20216;-63
2023/07/02 00:09:38;;;;;;;0.00;0.00;;;17.30;99.90;;;;;;5050514;28;20234;-64
2023/07/02 00:12:04;;;;;;;0.00;0.00;;;17.30;99.90;;;;;;5051353;28;20189;-64
2023/07/02 00:14:29;;;;;;;0.38;0.38;;;17.20;99.90;;;;;;5051106;28;20231;-63
2023/07/02 00:16:55;;;;;;;0.10;0.10;;;17.20;99.90;;;;;;5050971;28;20213;-66
2023/07/02 00:19:20;;;;;;;0.00;0.00;;;17.10;99.90;;;;;;5050011;28;20264;-64
2023/07/02 00:21:46;;;;;;;0.00;0.00;;;17.10;99.90;;;;;;5050831;28;20578;-63
2023/07/02 00:24:12;;;;;;;0.00;0.00;;;17.10;99.90;;;;;;5050834;28;20181;-64
2023/07/02 00:26:38;;;;;;;0.10;0.10;;;17.10;99.90;;;;;;5050675;28;20201;-64
2023/07/02 00:29:05;;;;;;;0.00;0.00;;;17.00;99.90;;;;;;5050865;28;20311;-64
2023/07/02 00:31:31;;;;;;;0.00;0.00;;;17.00;99.90;;;;;;5050468;28;20178;-64
2023/07/02 00:33:57;;;;;;;0.00;0.00;;;17.00;99.90;;;;;;5050569;28;20181;-64
2023/07/02 00:36:22;;;;;;;0.00;0.00;;;17.00;99.90;;;;;;5050236;28;20223;-64
2023/07/02 00:38:49;;;;;;;0.00;0.00;;;16.90;99.90;;;;;;5050347;28;20185;-64
2023/07/02 00:41:15;;;;;;;0.00;0.00;;;17.00;99.90;;;;;;5050668;28;20193;-64
2023/07/02 00:43:44;;;;;;;0.00;0.00;;;17.00;99.90;;;;;;5050407;28;20197;-64
2023/07/02 00:46:17;;;;;;;0.00;0.00;;;16.90;99.90;;;;;;5050677;28;20185;-63
2023/07/02 00:48:45;;;;;;;0.00;0.00;;;16.90;99.90;;;;;;5050406;28;20173;-64
2023/07/02 00:51:14;;;;;;;0.00;0.00;;;17.00;99.90;;;;;;5050795;28;20181;-64
2023/07/02 00:53:39;;;;;;;0.00;0.00;;;17.00;99.90;;;;;;5050830;28;20165;-64
2023/07/02 00:56:05;;;;;;;0.00;0.00;;;17.00;99.90;;;;;;5050049;28;20300;-64
2023/07/02 00:58:31;;;;;;;0.00;0.00;;;17.00;99.90;;;;;;5050379;28;20201;-64
2023/07/02 01:00:56;;;;;;;0.00;0.00;;;17.00;99.90;;;;;;5050692;28;20243;-64
2023/07/02 01:03:22;;;;;;;0.00;0.00;;;17.00;99.90;;;;;;5050673;28;20231;-63
2023/07/02 01:05:47;;;;;;;0.00;0.00;;;17.00;99.90;;;;;;5051024;28;20260;-64
2023/07/02 01:08:14;;;;;;;0.00;0.00;;;17.00;99.90;;;;;;5050893;28;20200;-63
2023/07/02 01:10:39;;;;;;;0.08;0.08;;;17.00;99.90;;;;;;5050546;28;20591;-64
2023/07/02 01:13:10;;;;;;;0.00;0.00;;;17.00;99.90;;;;;;5051001;28;20276;-64
2023/07/02 01:15:36;;;;;;;0.00;0.00;;;17.00;99.90;;;;;;5050907;28;20307;-64
2023/07/02 01:18:04;;;;;;;0.00;0.00;;;17.00;99.90;;;;;;5050976;28;20174;-63
2023/07/02 01:20:30;;;;;;;0.25;0.25;;;17.00;99.90;;;;;;5044944;28;20556;-64
2023/07/02 01:22:57;;;;;;;0.00;0.00;;;17.00;99.90;;;;;;5050689;28;20212;-64
2023/07/02 01:25:24;;;;;;;0.00;0.00;;;17.00;99.90;;;;;;5049591;28;20185;-64
2023/07/02 01:27:51;;;;;;;0.00;0.00;;;17.10;99.90;;;;;;5049786;28;20225;-63
2023/07/02 01:30:16;;;;;;;0.10;0.10;;;17.10;99.90;;;;;;5050652;28;20193;-64
2023/07/02 01:32:42;;;;;;;0.00;0.00;;;17.10;99.90;;;;;;5050679;28;20178;-64
2023/07/02 01:35:08;;;;;;;0.00;0.00;;;17.10;99.90;;;;;;5050633;28;20205;-64
2023/07/02 01:37:37;;;;;;;0.00;0.00;;;17.00;99.90;;;;;;5050667;28;20272;-64
2023/07/02 01:40:06;;;;;;;0.20;0.15;;;17.00;99.90;;;;;;5050786;28;20170;-64
2023/07/02 01:42:31;;;;;;;0.03;0.03;;;17.00;99.90;;;;;;5050538;28;20192;-63
2023/07/02 01:44:57;;;;;;;0.00;0.00;;;17.00;99.90;;;;;;5050572;28;20177;-63
2023/07/02 01:47:23;;;;;;;0.00;0.00;;;17.00;99.90;;;;;;5050257;28;20181;-63
2023/07/02 01:49:49;;;;;;;0.20;0.20;;;16.90;99.90;;;;;;5049818;28;20173;-63
2023/07/02 01:52:15;;;;;;;0.00;0.00;;;16.90;99.90;;;;;;5050605;28;20196;-63
2023/07/02 01:54:41;;;;;;;0.00;0.00;;;16.90;99.90;;;;;;5050194;28;20174;-63
2023/07/02 01:57:06;;;;;;;0.00;0.00;;;16.90;99.90;;;;;;5050097;28;20255;-63
2023/07/02 01:59:32;;;;;;;0.00;0.00;;;16.90;99.90;;;;;;5050373;28;20288;-63
2023/07/02 02:01:57;;;;;;;0.00;0.00;;;16.90;99.90;;;;;;5049271;28;20274;-63
2023/07/02 02:04:23;;;;;;;0.00;0.00;;;16.90;99.90;;;;;;5050013;28;20178;-63
2023/07/02 02:06:48;;;;;;;0.00;0.00;;;17.00;99.90;;;;;;5049844;28;20259;-63
2023/07/02 02:09:14;;;;;;;0.00;0.00;;;17.00;99.90;;;;;;5052866;28;20231;-63
2023/07/02 02:11:44;;;;;;;0.00;0.00;;;17.00;99.90;;;;;;5047013;28;20181;-63
2023/07/02 02:14:10;;;;;;;0.00;0.00;;;17.00;99.90;;;;;;5051868;28;20173;-63
2023/07/02 02:16:35;;;;;;;0.00;0.00;;;17.00;99.90;;;;;;5051558;28;20750;-63
2023/07/02 02:19:02;;;;;;;0.00;0.00;;;17.00;99.90;;;;;;5037333;28;20178;-63
2023/07/02 02:21:27;;;;;;;0.00;0.00;;;16.90;99.90;;;;;;5032047;28;20660;-63
2023/07/02 02:23:53;;;;;;;0.00;0.00;;;16.90;99.90;;;;;;5047457;28;20185;-63
2023/07/02 02:26:21;;;;;;;0.00;0.00;;;16.90;99.90;;;;;;5052913;28;20574;-63
2023/07/02 02:28:47;;;;;;;0.00;0.00;;;16.90;99.90;;;;;;5053243;28;20282;-63
2023/07/02 02:31:12;;;;;;;0.15;0.15;;;16.80;99.90;;;;;;5039785;28;20640;-63
2023/07/02 02:33:38;;;;;;;0.00;0.00;;;16.80;99.90;;;;;;5053371;28;20630;-63
2023/07/02 02:36:03;;;;;;;0.00;0.00;;;16.80;99.90;;;;;;5053095;28;20764;-63
2023/07/02 02:38:29;;;;;;;0.00;0.00;;;16.80;99.90;;;;;;5053289;28;20663;-63
2023/07/02 02:40:54;;;;;;;0.00;0.00;;;16.80;99.90;;;;;;5052150;28;20189;-63
2023/07/02 02:43:20;;;;;;;0.00;0.00;;;16.80;99.90;;;;;;5053121;28;20640;-63
2023/07/02 02:45:46;;;;;;;0.00;0.00;;;16.70;99.90;;;;;;5052995;28;20173;-63
2023/07/02 02:48:12;;;;;;;0.00;0.00;;;16.70;99.90;;;;;;5053113;28;20653;-63
2023/07/02 02:50:42;;;;;;;0.00;0.00;;;16.70;99.90;;;;;;5052941;28;20181;-63
2023/07/02 02:53:08;;;;;;;0.00;0.00;;;16.70;99.90;;;;;;5052753;28;20565;-63
2023/07/02 02:55:34;;;;;;;0.00;0.00;;;16.70;99.90;;;;;;5052880;28;20205;-63
2023/07/02 02:57:59;;;;;;;0.00;0.00;;;16.70;99.90;;;;;;5052731;28;20547;-63
2023/07/02 03:00:25;;;;;;;0.13;0.13;;;16.60;99.90;;;;;;5051223;28;20169;-63
2023/07/02 03:02:51;;;;;;;0.00;0.00;;;16.60;99.90;;;;;;5052773;28;20181;-64
2023/07/02 03:05:16;;;;;;;0.00;0.00;;;16.60;99.90;;;;;;5052745;28;20177;-63
2023/07/02 03:07:42;;;;;;;0.00;0.00;;;16.50;99.90;;;;;;5052655;28;20166;-63
2023/07/02 03:10:08;;;;;;;0.00;0.00;;;16.50;99.90;;;;;;5051977;28;20268;-63
2023/07/02 03:12:34;;;;;;;0.00;0.00;;;16.50;99.90;;;;;;5052583;28;20211;-64
2023/07/02 03:15:00;;;;;;;0.00;0.00;;;16.50;99.90;;;;;;5052524;28;20629;-63
2023/07/02 03:17:25;;;;;;;0.00;0.00;;;16.50;99.90;;;;;;5052427;28;20231;-64
2023/07/02 03:19:51;;;;;;;0.00;0.00;;;16.40;99.90;;;;;;5051805;28;20174;-64
2023/07/02 03:22:17;;;;;;;0.00;0.00;;;16.40;99.90;;;;;;5052667;28;20267;-64
2023/07/02 03:24:42;;;;;;;0.00;0.00;;;16.40;99.90;;;;;;5052225;28;20281;-64
2023/07/02 03:27:08;;;;;;;0.00;0.00;;;16.30;99.90;;;;;;5052078;28;20287;-63
2023/07/02 03:29:38;;;;;;;0.00;0.00;;;16.30;99.90;;;;;;5047896;28;20705;-64
2023/07/02 03:32:04;;;;;;;0.00;0.00;;;16.20;99.90;;;;;;5047160;28;20716;-64
2023/07/02 03:34:30;;;;;;;0.00;0.00;;;16.20;99.90;;;;;;5052288;28;20186;-64
2023/07/02 03:36:55;;;;;;;0.00;0.00;;;16.20;99.90;;;;;;5052407;28;20300;-64
2023/07/02 03:39:21;;;;;;;0.70;0.70;;;16.10;99.90;;;;;;5052029;28;20269;-64
2023/07/02 03:41:47;;;;;;;0.00;0.00;;;16.00;99.90;;;;;;5050908;28;20178;-64
2023/07/02 03:44:12;;;;;;;0.00;0.00;;;16.00;99.90;;;;;;5051550;28;20178;-64
2023/07/02 03:46:38;;;;;;;0.00;0.00;;;16.00;99.90;;;;;;5051871;28;20169;-64
2023/07/02 03:49:04;;;;;;;0.00;0.00;;;16.00;99.90;;;;;;5051130;28;20535;-64
2023/07/02 03:51:30;;;;;;;0.00;0.00;;;15.90;99.90;;;;;;5051466;28;20174;-64
2023/07/02 03:53:56;;;;;;;0.00;0.00;;;16.00;99.90;;;;;;5052040;28;20527;-64
2023/07/02 03:56:21;;;;;;;0.00;0.00;;;16.00;99.90;;;;;;5051364;28;20220;-64
2023/07/02 03:58:47;;;;;;;0.00;0.00;;;16.00;99.90;;;;;;5051382;28;20181;-64
2023/07/02 04:01:13;;;;;;;0.00;0.00;;;15.90;99.90;;;;;;5051301;28;20252;-64
2023/07/02 04:03:38;;;;;;;0.00;0.00;;;15.90;99.90;;;;;;5051592;28;20174;-64
2023/07/02 04:06:07;;;;;;;0.00;0.00;;;15.90;99.90;;;;;;5051160;28;20185;-64
2023/07/02 04:08:32;;;;;;;0.00;0.00;;;16.00;99.90;;;;;;5051297;28;20178;-63
2023/07/02 04:10:58;;;;;;;0.00;0.00;;;15.90;99.90;;;;;;5051317;28;20173;-63
2023/07/02 04:13:23;;;;;;;0.00;0.00;;;16.00;99.90;;;;;;5050861;28;20324;-63
2023/07/02 04:15:49;;;;;;;0.00;0.00;;;15.90;99.90;;;;;;5049537;28;20204;-62
2023/07/02 04:18:14;;;;;;;0.00;0.00;;;15.90;99.90;;;;;;5051087;28;20173;-63
2023/07/02 04:20:40;;;;;;;0.00;0.00;;;15.90;99.90;;;;;;5049615;28;20227;-63
2023/07/02 04:23:06;;;;;;;0.00;0.00;;;16.00;99.90;;;;;;5050463;28;20193;-63
2023/07/02 04:25:32;;;;;;;0.10;0.10;;;16.00;99.90;;;;;;5050092;28;20181;-60
2023/07/02 04:27:58;;;;;;;0.00;0.00;;;16.00;99.90;;;;;;5050423;28;20213;-60
2023/07/02 04:30:25;;;;;;;0.00;0.00;;;16.20;99.90;;;;;;5050018;28;20181;-60
2023/07/02 04:32:53;;;;;;;0.22;0.20;;;16.40;99.90;;;;;;5050439;28;20192;-59
2023/07/02 04:35:19;;;;;;;0.00;0.00;;;16.60;99.90;;;;;;5050201;28;20714;-60
2023/07/02 04:37:44;;;;;;;0.00;0.00;;;16.90;99.90;;;;;;5049842;28;21520;-60
2023/07/02 04:40:10;;;;;;;0.00;0.00;;;17.10;99.90;;;;;;5050381;28;20186;-59
2023/07/02 04:42:37;;;;;;;0.00;0.00;;;17.30;99.90;;;;;;5049949;28;20181;-60
2023/07/02 04:45:04;;;;;;;0.00;0.00;;;17.40;99.90;;;;;;5050024;28;20185;-59
2023/07/02 04:47:30;;;;;;;0.00;0.00;;;17.40;99.90;;;;;;5049909;28;20266;-61
2023/07/02 04:49:55;;;;;;;0.00;0.00;;;17.20;99.90;;;;;;5049313;28;20214;-62
2023/07/02 04:52:21;;;;;;;0.00;0.00;;;17.10;99.90;;;;;;5049173;28;20192;-61
2023/07/02 04:54:46;;;;;;;0.00;0.00;;;17.00;99.90;;;;;;5049969;28;20234;-61
2023/07/02 04:57:14;;;;;;;0.00;0.00;;;17.20;99.90;;;;;;5049802;28;20642;-60
2023/07/02 04:59:41;;;;;;;0.00;0.00;;;17.50;99.90;;;;;;5051503;28;20235;-60
2023/07/02 05:02:06;;;;;;;0.00;0.00;;;17.80;99.90;;;;;;5049550;28;20186;-61
2023/07/02 05:04:32;;;;;;;0.00;0.00;;;18.10;99.90;;;;;;5048260;28;20641;-61
2023/07/02 05:06:57;;;;;;;0.00;0.00;;;18.20;99.90;;;;;;5050122;28;20181;-61
2023/07/02 05:09:23;;;;;;;0.00;0.00;;;18.40;99.90;;;;;;5049976;28;20195;-61
2023/07/02 05:11:48;;;;;;;0.00;0.00;;;18.60;99.90;;;;;;5049615;28;20216;-61
2023/07/02 05:14:14;;;;;;;0.00;0.00;;;18.70;99.90;;;;;;5049045;28;20242;-60
2023/07/02 05:16:39;;;;;;;0.00;0.00;;;18.60;99.90;;;;;;5048895;28;20224;-61
2023/07/02 05:19:05;;;;;;;0.00;0.00;;;18.40;99.90;;;;;;5049323;28;20525;-60
2023/07/02 05:21:30;;;;;;;0.10;0.10;;;18.30;99.90;;;;;;5050072;28;20193;-61
2023/07/02 05:23:56;;;;;;;0.00;0.00;;;18.20;99.90;;;;;;5049754;28;20182;-61
2023/07/02 05:26:21;;;;;;;0.00;0.00;;;18.60;99.90;;;;;;5049043;28;20220;-61
2023/07/02 05:28:48;;;;;;;0.00;0.00;;;19.00;99.90;;;;;;5050192;28;20283;-60
2023/07/02 05:31:13;;;;;;;0.00;0.00;;;19.20;99.90;;;;;;5050446;28;20181;-61
2023/07/02 05:33:39;;;;;;;0.00;0.00;;;19.60;99.90;;;;;;5049913;28;21884;-60
2023/07/02 05:36:04;;;;;;;0.00;0.00;;;20.00;99.90;;;;;;5048179;28;20673;-60
2023/07/02 05:38:30;;;;;;;0.00;0.00;;;20.20;99.90;;;;;;5049671;28;20875;-60
2023/07/02 05:40:55;;;;;;;0.00;0.00;;;20.40;99.90;;;;;;5050450;28;20629;-60
2023/07/02 05:43:21;;;;;;;0.00;0.00;;;20.60;99.90;;;;;;5052523;28;20546;-60
2023/07/02 05:45:47;;;;;;;0.00;0.00;;;20.90;99.90;;;;;;5054408;28;20181;-61
2023/07/02 05:48:12;;;;;;;0.00;0.00;;;21.20;99.90;;;;;;5054395;28;20174;-61
2023/07/02 05:50:38;;;;;;;0.00;0.00;;;21.60;99.90;;;;;;5054347;28;20204;-62
2023/07/02 05:53:03;;;;;;;0.00;0.00;;;21.90;99.90;;;;;;5053694;28;20832;-59
2023/07/02 05:55:29;;;;;;;0.00;0.00;;;22.20;99.90;;;;;;5053782;28;20213;-59
2023/07/02 05:57:57;;;;;;;0.00;0.00;;;22.10;99.90;;;;;;5054069;28;20181;-59
2023/07/02 06:00:22;;;;;;;0.43;0.43;;;22.10;99.60;;;;;;5053773;28;20189;-59
2023/07/02 06:02:48;;;;;;;0.00;0.00;;;22.00;99.30;;;;;;5054024;28;20508;-60
2023/07/02 06:05:13;;;;;;;0.00;0.00;;;21.80;99.60;;;;;;5053660;28;20268;-60
2023/07/02 06:07:39;;;;;;;0.08;0.08;;;22.30;99.90;;;;;;5053794;28;20185;-60
2023/07/02 06:10:05;;;;;;;0.35;0.35;;;22.50;99.10;;;;;;5053478;28;20182;-60
2023/07/02 06:12:30;;;;;;;0.00;0.00;;;22.50;98.90;;;;;;5053570;28;20227;-60
2023/07/02 06:14:56;;;;;;;0.00;0.00;;;22.30;97.80;;;;;;5053609;28;20182;-59
2023/07/02 06:17:22;;;;;;;0.00;0.00;;;21.60;97.80;;;;;;5053391;28;20212;-59
2023/07/02 06:19:48;;;;;;;0.00;0.00;;;21.70;98.50;;;;;;5053510;28;20314;-60
2023/07/02 06:22:13;;;;;;;0.00;0.00;;;21.70;98.70;;;;;;5053539;28;20185;-60
2023/07/02 06:24:39;;;;;;;0.55;0.20;;;21.60;98.80;;;;;;5053369;28;20232;-59
2023/07/02 06:27:04;;;;;;;0.00;0.00;;;21.50;98.10;;;;;;5053239;28;20244;-59
2023/07/02 06:29:30;;;;;;;0.00;0.00;;;21.90;98.20;;;;;;5053331;28;20296;-59
2023/07/02 06:31:55;;;;;;;0.00;0.00;;;22.30;97.80;;;;;;5053298;28;20181;-59
2023/07/02 06:34:21;;;;;;;0.03;0.03;;;22.40;96.70;;;;;;5053203;28;20236;-59
2023/07/02 06:36:47;;;;;;;0.00;0.00;;;22.00;96.00;;;;;;5053264;28;20217;-59
2023/07/02 06:39:13;;;;;;;0.00;0.00;;;21.50;96.10;;;;;;5053231;28;20161;-60
2023/07/02 06:41:38;;;;;;;0.00;0.00;;;21.60;96.70;;;;;;5053313;28;20172;-59
2023/07/02 06:44:04;;;;;;;0.00;0.00;;;21.90;96.60;;;;;;5053053;28;20186;-60
2023/07/02 06:46:30;;;;;;;0.00;0.00;;;21.70;96.40;;;;;;5051712;28;20181;-60
2023/07/02 06:48:56;;;;;;;0.00;0.00;;;21.40;96.40;;;;;;5053150;28;20162;-59
2023/07/02 06:51:22;;;;;;;0.00;0.00;;;20.90;96.80;;;;;;5052878;28;20195;-59
2023/07/02 06:53:48;;;;;;;0.00;0.00;;;21.20;97.40;;;;;;5051914;28;20573;-59
2023/07/02 06:56:13;;;;;;;0.00;0.00;;;21.50;96.50;;;;;;5053027;28;20266;-59
2023/07/02 06:58:42;;;;;;;0.00;0.00;;;22.00;96.20;;;;;;5053298;28;20173;-60
2023/07/02 07:01:08;;;;;;;0.10;0.10;;;22.50;95.20;;;;;;5053117;28;20181;-59
2023/07/02 07:03:34;;;;;;;0.00;0.00;;;23.20;95.30;;;;;;5052968;28;20243;-59
2023/07/02 07:05:59;;;;;;;0.00;0.00;;;23.70;93.10;;;;;;5053135;28;20178;-60
2023/07/02 07:08:25;;;;;;;0.08;0.08;;;24.00;92.40;;;;;;5052803;28;20636;-60
2023/07/02 07:10:51;;;;;;;0.00;0.00;;;24.10;91.90;;;;;;5053057;28;20228;-60
2023/07/02 07:13:16;;;;;;;0.00;0.00;;;23.90;91.40;;;;;;5052944;28;20193;-60
2023/07/02 07:15:42;;;;;;;0.00;0.00;;;24.10;90.20;;;;;;5052656;28;20728;-60
2023/07/02 07:18:08;;;;;;;0.00;0.00;;;24.30;89.30;;;;;;5052913;28;20190;-60
2023/07/02 07:20:34;;;;;;;0.00;0.00;;;24.40;90.00;;;;;;5051596;28;20265;-60
2023/07/02 07:22:59;;;;;;;0.00;0.00;;;24.30;89.60;;;;;;5052843;28;20188;-60
2023/07/02 07:25:25;;;;;;;0.00;0.00;;;23.90;87.30;;;;;;5052532;28;20176;-60
2023/07/02 07:27:51;;;;;;;0.00;0.00;;;23.80;88.30;;;;;;5052428;28;20232;-60
2023/07/02 07:30:22;;;;;;;0.00;0.00;;;23.40;88.40;;;;;;5052468;28;20518;-60
2023/07/02 07:32:51;;;;;;;0.00;0.00;;;23.00;89.20;;;;;;5052594;28;20193;-60
2023/07/02 07:35:17;;;;;;;0.00;0.00;;;22.70;88.20;;;;;;5052288;28;20307;-60
2023/07/02 07:37:43;;;;;;;0.00;0.00;;;22.40;87.80;;;;;;5052207;28;20598;-60
2023/07/02 07:40:09;;;;;;;0.00;0.00;;;22.60;89.30;;;;;;5052454;28;20252;-60
2023/07/02 07:42:34;;;;;;;0.20;0.20;;;22.70;88.50;;;;;;5052255;28;20177;-60
2023/07/02 07:45:02;;;;;;;0.00;0.00;;;23.10;87.10;;;;;;5052253;28;20201;-60
2023/07/02 07:47:28;;;;;;;0.00;0.00;;;23.30;85.70;;;;;;5052150;28;20174;-60
2023/07/02 07:49:54;;;;;;;0.00;0.00;;;23.00;85.40;;;;;;5052154;28;20181;-60
2023/07/02 07:52:20;;;;;;;0.00;0.00;;;23.30;84.50;;;;;;5052150;28;20672;-60
2023/07/02 07:54:45;;;;;;;0.00;0.00;;;23.60;84.50;;;;;;5052050;28;20188;-60
2023/07/02 07:57:11;;;;;;;0.00;0.00;;;23.80;82.80;;;;;;5052058;28;20209;-60
2023/07/02 07:59:36;;;;;;;0.00;0.00;;;24.40;82.40;;;;;;5051972;28;20181;-60
2023/07/02 08:02:02;;;;;;;0.00;0.00;;;25.10;80.40;;;;;;5051891;28;20177;-60
2023/07/02 08:04:28;;;;;;;0.00;0.00;;;25.40;76.30;;;;;;5052000;28;20182;-60
2023/07/02 08:06:54;;;;;;;0.00;0.00;;;24.90;74.50;;;;;;5051536;28;20235;-60
2023/07/02 08:09:20;;;;;;;0.10;0.10;;;24.40;74.20;;;;;;5051820;28;20172;-60
2023/07/02 08:11:46;;;;;;;0.00;0.00;;;24.10;75.70;;;;;;5051612;28;20185;-60
2023/07/02 08:14:12;;;;;;;0.00;0.00;;;24.20;77.20;;;;;;5051793;28;20253;-60
2023/07/02 08:16:37;;;;;;;0.00;0.00;;;24.30;76.80;;;;;;5051703;28;20213;-60
2023/07/02 08:19:03;;;;;;;0.10;0.10;;;24.70;77.50;;;;;;5051568;28;20184;-60
2023/07/02 08:21:29;;;;;;;0.00;0.00;;;24.80;76.20;;;;;;5050284;28;20177;-60
2023/07/02 08:23:54;;;;;;;0.00;0.00;;;24.90;75.00;;;;;;5051674;28;20222;-60
2023/07/02 08:26:20;;;;;;;0.10;0.10;;;24.80;73.50;;;;;;5051558;28;20252;-60
2023/07/02 08:28:45;;;;;;;0.00;0.00;;;24.70;74.40;;;;;;5051298;28;20300;-60
2023/07/02 08:31:11;;;;;;;0.00;0.00;;;24.40;73.30;;;;;;5050179;28;20193;-60
2023/07/02 08:33:36;;;;;;;0.80;0.40;;;24.40;73.90;;;;;;5051406;28;20194;-60
2023/07/02 08:36:02;;;;;;;0.00;0.00;;;24.20;73.50;;;;;;5051312;28;20752;-60
2023/07/02 08:38:28;;;;;;;0.13;0.13;;;23.90;75.10;;;;;;5051182;28;20176;-60
2023/07/02 08:40:53;;;;;;;0.05;0.03;;;24.00;76.10;;;;;;5051400;28;20236;-62
2023/07/02 08:43:19;;;;;;;0.15;0.15;;;24.00;74.20;;;;;;5051368;28;20744;-61
2023/07/02 08:45:45;;;;;;;0.00;0.00;;;24.10;74.70;;;;;;5051264;28;20719;-60
2023/07/02 08:48:11;;;;;;;0.00;0.00;;;24.20;75.00;;;;;;5051331;28;20173;-60
2023/07/02 08:50:36;;;;;;;0.15;0.15;;;23.90;73.20;;;;;;5051181;28;20224;-60
2023/07/02 08:53:02;;;;;;;0.00;0.00;;;23.80;75.10;;;;;;5051214;28;20189;-60
2023/07/02 08:55:29;;;;;;;0.10;0.10;;;24.00;76.80;;;;;;5051109;28;20236;-60
2023/07/02 08:58:00;;;;;;;0.03;0.03;;;23.90;74.50;;;;;;5051194;28;20216;-60
2023/07/02 09:00:26;;;;;;;0.00;0.00;;;24.20;75.60;;;;;;5050994;28;20177;-60
2023/07/02 09:02:52;;;;;;;0.00;0.00;;;24.30;73.90;;;;;;5051146;28;20189;-60
2023/07/02 09:05:18;;;;;;;0.00;0.00;;;24.40;73.80;;;;;;5051071;28;20169;-60
2023/07/02 09:07:48;;;;;;;0.00;0.00;;;24.30;73.30;;;;;;5049715;28;20184;-60
2023/07/02 09:10:34;;;;;;;0.10;0.10;;;24.00;72.00;;;;;;5050957;28;20165;-60
2023/07/02 09:13:07;;;;;;;0.00;0.00;;;24.30;72.50;;;;;;5049457;28;21263;-60
2023/07/02 09:15:37;;;;;;;0.15;0.10;;;24.30;71.40;;;;;;5050714;28;20356;-60
2023/07/02 09:18:03;;;;;;;0.10;0.10;;;23.90;71.20;;;;;;5052925;28;20169;-60
2023/07/02 09:20:34;;;;;;;0.00;0.00;;;23.90;70.60;;;;;;5054949;28;20182;-60
2023/07/02 09:23:00;;;;;;;0.05;0.05;;;24.20;72.30;;;;;;5055137;28;20246;-60
2023/07/02 09:25:39;;;;;;;0.00;0.00;;;24.50;70.60;;;;;;5054737;28;20170;-60
2023/07/02 09:28:16;;;;;;;0.00;0.00;;;24.60;70.00;;;;;;5054632;28;20731;-60
2023/07/02 09:30:56;;;;;;;0.00;0.00;;;24.20;70.30;;;;;;5054654;28;20184;-60
2023/07/02 09:33:24;;;;;;;0.05;0.05;;;24.30;71.20;;;;;;5054719;28;20185;-60
2023/07/02 09:35:51;;;;;;;0.17;0.17;;;24.60;71.50;;;;;;5054828;28;20213;-60
2023/07/02 09:38:16;;;;;;;0.13;0.13;;;24.50;70.30;;;;;;5054617;28;20185;-60
2023/07/02 09:40:50;;;;;;;0.25;0.25;;;24.50;68.10;;;;;;5054594;28;20271;-60
2023/07/02 09:43:19;;;;;;;0.00;0.00;;;24.30;67.80;;;;;;5054822;28;20244;-60
2023/07/02 09:45:49;;;;;;;0.00;0.00;;;24.20;69.20;;;;;;5054523;28;20172;-60
2023/07/02 09:48:16;;;;;;;0.45;0.45;;;24.40;69.30;;;;;;5054653;28;20196;-60
2023/07/02 09:50:44;;;;;;;0.00;0.00;;;24.90;70.40;;;;;;5054497;28;20174;-60
2023/07/02 09:53:10;;;;;;;0.00;0.00;;;25.00;67.00;;;;;;5054606;28;20166;-60
2023/07/02 09:55:38;;;;;;;0.00;0.00;;;24.90;67.10;;;;;;5054344;28;20326;-60
2023/07/02 09:58:04;;;;;;;0.00;0.00;;;24.80;67.60;;;;;;5054184;28;20181;-60
2023/07/02 10:00:30;;;;;;;0.13;0.10;;;24.20;68.60;;;;;;5054310;28;20170;-60
2023/07/02 10:02:55;;;;;;;0.47;0.47;;;24.40;68.30;;;;;;5054377;28;20663;-60
2023/07/02 10:05:32;;;;;;;0.00;0.00;;;24.40;68.10;;;;;;5054140;28;20254;-60
2023/07/02 10:07:59;;;;;;;0.28;0.28;;;24.30;67.90;;;;;;5054312;28;20185;-60
2023/07/02 10:10:31;;;;;;;0.00;0.00;;;24.20;68.70;;;;;;5053972;28;20201;-60
2023/07/02 10:12:57;;;;;;;0.00;0.00;;;24.10;68.60;;;;;;5053962;28;20650;-60
2023/07/02 10:15:27;;;;;;;0.00;0.00;;;24.10;69.00;;;;;;5053755;28;20680;-59
2023/07/02 10:17:57;;;;;;;0.00;0.00;;;24.50;68.60;;;;;;5053981;28;20280;-60
2023/07/02 10:20:36;;;;;;;0.10;0.10;;;24.70;68.30;;;;;;5053674;28;20243;-60
2023/07/02 10:23:03;;;;;;;0.28;0.28;;;24.70;67.20;;;;;;5053980;28;20201;-60
2023/07/02 10:25:37;;;;;;;0.00;0.00;;;24.40;68.60;;;;;;5053779;28;20172;-60
2023/07/02 10:28:22;;;;;;;0.00;0.00;;;24.50;68.10;;;;;;5053175;28;20235;-60
2023/07/02 10:30:48;;;;;;;0.75;0.40;;;24.50;67.70;;;;;;5053750;28;20830;-60
2023/07/02 10:33:15;;;;;;;0.00;0.00;;;24.50;68.30;;;;;;5053697;28;20192;-60
2023/07/02 10:35:48;;;;;;;0.00;0.00;;;24.50;69.50;;;;;;5053373;28;20271;-60
2023/07/02 10:38:19;;;;;;;0.00;0.00;;;25.10;70.00;;;;;;5053646;28;20181;-60
2023/07/02 10:40:45;;;;;;;0.00;0.00;;;25.50;67.80;;;;;;5053513;28;20636;-60
2023/07/02 10:43:10;;;;;;;0.38;0.38;;;25.50;66.10;;;;;;5053538;28;20256;-60
2023/07/02 10:45:36;;;;;;;0.70;0.70;;;25.40;66.30;;;;;;5053364;28;20189;-60
2023/07/02 10:48:04;;;;;;;0.00;0.00;;;25.30;65.40;;;;;;5053250;28;20176;-60
2023/07/02 10:50:31;;;;;;;0.10;0.10;;;25.30;67.80;;;;;;5053300;28;20192;-60
2023/07/02 10:52:56;;;;;;;0.85;0.43;;;25.00;66.50;;;;;;5051922;28;20268;-60
2023/07/02 10:55:24;;;;;;;0.00;0.00;;;24.70;68.60;;;;;;5053027;28;20261;-60
2023/07/02 10:58:02;;;;;;;0.00;0.00;;;24.30;67.20;;;;;;5053306;28;20181;-60
2023/07/02 11:00:27;;;;;;;0.05;0.05;;;24.20;67.60;;;;;;5053175;28;20789;-60
2023/07/02 11:02:53;;;;;;;0.10;0.10;;;24.10;68.60;;;;;;5053071;28;20181;-60
2023/07/02 11:05:19;;;;;;;0.00;0.00;;;24.20;69.40;;;;;;5053019;28;20587;-60
2023/07/02 11:07:45;;;;;;;0.10;0.10;;;24.50;69.00;;;;;;5052897;28;20790;-60
2023/07/02 11:10:18;;;;;;;0.00;0.00;;;24.80;68.20;;;;;;5053054;28;20754;-60
2023/07/02 11:12:44;;;;;;;0.40;0.20;;;24.90;68.50;;;;;;5052894;28;20589;-60
2023/07/02 11:15:11;;;;;;;0.15;0.15;;;24.80;68.10;;;;;;5052859;28;20186;-60
2023/07/02 11:17:37;;;;;;;0.00;0.00;;;25.20;69.70;;;;;;5052806;28;20193;-60
2023/07/02 11:20:05;;;;;;;0.73;0.15;;;25.40;67.70;;;;;;5052687;28;21233;-60
2023/07/02 11:22:32;;;;;;;0.32;0.28;;;25.20;67.10;;;;;;5051385;28;20192;-60
2023/07/02 11:25:08;;;;;;;0.00;0.00;;;25.20;67.70;;;;;;5051483;28;20699;-60
2023/07/02 11:27:34;;;;;;;0.00;0.00;;;25.50;66.40;;;;;;5052468;28;20267;-60
2023/07/02 11:30:00;;;;;;;0.00;0.00;;;25.60;66.70;;;;;;5052382;28;20177;-60
2023/07/02 11:32:25;;;;;;;0.22;0.22;;;26.00;65.20;;;;;;5052343;28;20272;-60
2023/07/02 11:34:54;;;;;;;0.00;0.00;;;26.00;62.90;;;;;;5052656;28;20173;-60
2023/07/02 11:37:19;;;;;;;0.00;0.00;;;25.50;63.40;;;;;;5052274;28;20647;-60
2023/07/02 11:39:45;;;;;;;0.57;0.57;;;25.30;63.30;;;;;;5051688;28;20174;-60
2023/07/02 11:42:10;;;;;;;0.43;0.35;;;24.90;65.00;;;;;;5052421;28;20185;-60
2023/07/02 11:44:36;;;;;;;0.00;0.00;;;24.80;65.80;;;;;;5052222;28;20633;-60
2023/07/02 11:47:02;;;;;;;0.00;0.00;;;24.80;66.00;;;;;;5052248;28;20234;-60
2023/07/02 11:49:28;;;;;;;0.00;0.00;;;24.70;66.40;;;;;;5052115;28;20232;-60
2023/07/02 11:51:53;;;;;;;0.00;0.00;;;24.50;66.60;;;;;;5052254;28;20233;-60
2023/07/02 11:54:19;;;;;;;0.00;0.00;;;24.40;67.20;;;;;;5052039;28;20185;-60
2023/07/02 11:56:45;;;;;;;0.00;0.00;;;24.50;67.30;;;;;;5052061;28;20220;-60
2023/07/02 11:59:10;;;;;;;0.52;0.38;;;24.80;68.10;;;;;;5052151;28;20165;-60
2023/07/02 12:01:36;;;;;;;0.10;0.10;;;25.00;66.70;;;;;;5052020;28;20181;-60
2023/07/02 12:04:02;;;;;;;0.00;0.00;;;25.00;66.70;;;;;;5051929;28;20181;-60
2023/07/02 12:06:28;;;;;;;0.10;0.10;;;25.10;66.40;;;;;;5051952;28;20534;-60
2023/07/02 12:08:53;;;;;;;0.00;0.00;;;25.30;67.30;;;;;;5051978;28;20208;-60
2023/07/02 12:11:19;;;;;;;0.05;0.05;;;25.60;65.00;;;;;;5051911;28;20220;-60
2023/07/02 12:13:44;;;;;;;0.00;0.00;;;26.00;63.10;;;;;;5051949;28;20170;-60
2023/07/02 12:16:10;;;;;;;0.13;0.13;;;26.40;62.20;;;;;;5051682;28;20204;-59
2023/07/02 12:18:35;;;;;;;0.35;0.15;;;26.70;62.20;;;;;;5051725;28;20177;-60
2023/07/02 12:21:01;;;;;;;0.05;0.05;;;26.80;60.00;;;;;;5051771;28;20181;-60
2023/07/02 12:23:26;;;;;;;0.35;0.22;;;26.80;59.20;;;;;;5051593;28;20175;-60
2023/07/02 12:25:52;;;;;;;0.00;0.00;;;27.00;59.30;;;;;;5051704;28;20169;-60
2023/07/02 12:28:17;;;;;;;0.68;0.68;;;27.20;59.30;;;;;;5051241;28;20268;-60
2023/07/02 12:30:43;;;;;;;0.00;0.00;;;27.20;59.20;;;;;;5051243;28;20716;-60
2023/07/02 12:33:08;;;;;;;0.00;0.00;;;26.80;57.80;;;;;;5050218;28;20161;-60
2023/07/02 12:35:34;;;;;;;0.10;0.10;;;26.60;59.10;;;;;;5051222;28;20251;-60
2023/07/02 12:37:59;;;;;;;0.10;0.10;;;26.60;58.70;;;;;;5051359;28;20213;-59
2023/07/02 12:40:25;;;;;;;0.45;0.43;;;26.40;58.70;;;;;;5051079;28;20162;-60
2023/07/02 12:42:50;;;;;;;0.00;0.00;;;26.40;58.50;;;;;;5051393;28;20177;-60
2023/07/02 12:45:16;;;;;;;0.00;0.00;;;26.30;57.30;;;;;;5051147;28;20180;-60